x

9442396 - La Push, Wa (lapw1) Weather Station

1:30 - Tue 23rd Aug 2016 All times are PDT. -7 hours from GMT.

  • Wind
    7mph, 9mph gusts
  • Sea Temp 49°f
  • Ar Temp 53°f
  • Sea Pressure 1023.5mb
  • 9442396 - La Push, Wa
  • 9442396 - La Push, Wa

More Historic Weather Station data

Upgrade to MSW Pro to gain access to the past 30 days of data for over 8000 Wavebouys and Weather Stations around the globe.

Join Pro

Comparision Forecast

View Surf forecast
   
Ter 08/23 1:30 7 9 mph 1023.5mb 49f 53f
1:24 7 9 mph 1023.5mb 49f 54f
1:18 6 9 mph 1023.5mb 49f 53f
1:12 8 10 mph 1023.5mb 49f 53f
1:06 8 9 mph 1023.5mb 49f 53f
1:00 6 8 mph 1023.5mb 49f 54f
12:36 7 8 mph 1023.5mb 50f 54f
12:30 5 8 mph 1023.6mb 50f 54f
12:24 6 7 mph 1023.6mb 50f 54f
12:18 5 6 mph 1023.7mb 50f 53f
12:12 5 7 mph 1023.7mb 50f 52f
12:06 6 8 mph 1023.7mb 50f 52f
12:00 6 8 mph 1023.7mb 51f 52f
11:36 6 7 mph 1023.7mb 52f 51f
11:30 5 6 mph 1023.7mb 52f 52f
11:24 5 6 mph 1023.7mb 52f 52f
11:18 6 7 mph 1023.8mb 52f 51f
11:12 5 7 mph 1023.9mb 52f 51f
11:06 6 7 mph 1023.9mb 52f 51f
11:00 6 7 mph 1023.8mb 52f 51f
10:36 6 7 mph 1023.7mb 53f 52f
10:30 6 7 mph 1023.6mb 53f 51f
10:24 6
mph
1023.6mb 52f 51f
10:18 5 6 mph 1023.5mb 52f 52f
10:12 5
mph
1023.5mb 52f 52f
10:06 5 6 mph 1023.5mb 52f 52f
10:00 5
mph
1023.4mb 51f 52f
9:36 3 5 mph 1023.3mb 49f 52f
9:30 3 5 mph 1023.3mb 49f 52f
9:24 3
mph
1023.2mb 49f 52f
9:18 2 3 mph 1023.2mb 49f 52f
9:12 3 5 mph 1023.1mb 49f 51f
9:06 3 5 mph 1023.1mb 49f 51f
9:00 3 6 mph 1023.2mb 49f 52f
8:36  -  2 mph 1022.8mb 49f 53f
8:30 1 3 mph 1022.8mb 49f 52f
8:24 2 5 mph 1022.8mb 49f 52f
8:18 2 6 mph 1022.8mb 49f 51f
8:12 6
mph
1022.8mb 49f 50f
8:06 5 7 mph 1022.6mb 49f 50f
8:00 5 6 mph 1022.6mb 49f 50f
7:36  -  5 mph 1022.5mb 49f 49f
7:30  -  5 mph 1022.4mb 49f 48f
7:24 2 5 mph 1022.3mb 49f 48f
7:18 1 7 mph 1022.2mb 49f 47f
7:12 5 7 mph 1022.2mb 49f 47f
7:06 2 6 mph 1022.2mb 50f 47f
7:00 3 7 mph 1022.2mb 49f 47f
6:36 8 11 mph 1021.9mb 49f 47f
6:30 7 9 mph 1021.9mb 49f 47f
6:24 7 9 mph 1021.8mb 49f 47f
6:18 6 8 mph 1021.8mb 49f 47f
6:12 2 5 mph 1021.8mb 49f 47f
6:06  -  2 mph 1021.8mb 49f 47f
6:00  -  2 mph 1021.8mb 49f 47f
5:36 3
mph
1021.7mb 50f 47f
5:30  -  5 mph 1021.7mb 50f 47f
5:24 3 6 mph 1021.6mb 50f 47f
5:18 3 9 mph 1021.7mb 50f 47f
5:12 7 10 mph 1021.6mb 50f 47f
5:06 8 10 mph 1021.6mb 50f 47f
5:00 7 9 mph 1021.6mb 50f 47f
4:36 5 7 mph 1021.5mb 50f 48f
4:30 6 8 mph 1021.4mb 50f 48f
4:24 5 7 mph 1021.4mb 50f 48f
4:18 3 7 mph 1021.4mb 50f 48f
4:12 6 8 mph 1021.3mb 50f 48f
4:06 5 8 mph 1021.3mb 50f 48f
4:00 6 8 mph 1021.3mb 50f 48f
3:36 6 8 mph 1021.3mb 50f 48f
3:30 6 8 mph 1021.2mb 50f 48f
3:24 6 7 mph 1021.2mb 50f 48f
3:18 5 8 mph 1021.1mb 50f 48f
3:12 6 8 mph 1021.2mb 50f 48f
3:06 5 7 mph 1021.2mb 50f 48f
3:00 5 6 mph 1021.1mb 50f 48f
2:36 3 5 mph 1021.1mb 50f 49f
2:30 5 6 mph 1021.1mb 50f 49f
2:24 5 6 mph 1021.2mb 50f 49f
2:18 5 6 mph 1021.1mb 50f 49f
2:12 3 5 mph 1021mb 49f 49f
2:06 3
mph
1021mb 50f 49f
2:00 3 5 mph 1021mb 50f 49f
1:36 3 5 mph 1021.2mb 50f 50f
1:30 3
mph
1021.2mb 50f 50f
1:24  -  3 mph 1021.2mb 50f 50f
1:18 2 3 mph 1021.1mb 50f 50f
1:12 3 5 mph 1021.1mb 50f 50f
1:06 3 5 mph 1021.1mb 50f 50f
1:00 5 6 mph 1021mb 51f 50f
12:36 3 6 mph 1021.1mb 51f 50f
12:30 3 5 mph 1021mb 51f 51f
12:24 5 6 mph 1021mb 51f 51f
12:18 5 6 mph 1021mb 51f 51f
12:12 5
mph
1021mb 51f 51f
12:06 2 5 mph 1021mb 52f 51f
12:00 3
mph
1021mb 52f 51f
Seg 08/22 11:36 3 5 mph 1021mb 54f 52f
11:30 2 3 mph 1021.1mb 54f 52f
11:24 3
mph
1021mb 55f 52f
11:18 3 5 mph 1021mb 55f 52f
11:12 3 5 mph 1021.1mb 55f 52f
11:06 3 5 mph 1021mb 56f 52f
11:00  -  2 mph 1021mb 56f 52f
10:36 2
mph
1020.8mb 57f 52f
10:30 2 3 mph 1020.7mb 57f 53f
10:24 1 2 mph 1020.7mb 58f 53f
10:18 1 2 mph 1020.7mb 58f 53f
10:12  -  1 mph 1020.7mb 57f 53f
10:06  -  1 mph 1020.7mb 57f 53f
10:00 1 2 mph 1020.7mb 57f 53f
9:36 1 2 mph 1020.8mb 55f 54f
9:30  -  2 mph 1020.8mb 54f 54f
9:24 1 2 mph 1020.8mb 53f 54f
9:18 2 3 mph 1020.8mb 52f 54f
9:12 2
mph
1020.8mb 51f 54f
9:06 2 3 mph 1020.7mb 51f 54f
9:00 3 5 mph 1020.7mb 51f 54f
8:36 3 5 mph 1020.3mb 50f 54f
8:30 3 5 mph 1020.3mb 50f 54f
8:24 5 6 mph 1020.2mb 50f 55f
8:18 2 3 mph 1020.2mb 50f 55f
8:12 3 6 mph 1020.1mb 50f 55f
8:06 5 7 mph 1020mb 50f 55f
8:00 6 7 mph 1020mb 50f 55f
7:36 5 6 mph 1020.1mb 49f 55f
7:30 6
mph
1020.1mb 49f 56f
7:24 3 6 mph 1020.1mb 49f 56f
7:18 2 5 mph 1020mb 49f 56f
7:12 3 5 mph 1020.1mb 49f 55f
7:06 3 6 mph 1020mb 49f 56f
7:00 3 6 mph 1020mb 49f 56f
6:36 3 7 mph 1020.2mb 49f 55f
6:30 5 7 mph 1020.1mb 49f 55f
6:24 5
mph
1020.1mb 49f 55f
6:18 3 6 mph 1020.1mb 49f 55f
6:12 5 6 mph 1020.1mb 49f 55f
6:06 6 7 mph 1020.2mb 49f 55f
6:00 6 7 mph 1020.1mb 49f 55f
5:36 3 7 mph 1020.1mb 49f 56f
5:30 5 7 mph 1020.1mb 49f 56f
5:24 3 6 mph 1020.1mb 49f 56f
5:18 5 6 mph 1020.1mb 49f 56f
5:12 5 6 mph 1020.2mb 49f 56f
5:06 3 6 mph 1020.1mb 49f 56f
5:00 3 5 mph 1020.1mb 49f 56f
4:36 6 7 mph 1020.1mb 49f 56f
4:30 7 8 mph 1020.1mb 49f 56f
4:24 6 8 mph 1020.1mb 49f 56f
4:18 6 8 mph 1020mb 49f 56f
4:12 7 8 mph 1020.1mb 49f 56f
4:06 6 8 mph 1020.1mb 49f 56f
4:00 6 9 mph 1020.1mb 49f 57f
3:36 6 7 mph 1020.2mb 49f 57f
3:30 5 8 mph 1020.2mb 49f 56f
3:24 7 8 mph 1020.2mb 49f 56f
3:18 6 8 mph 1020.2mb 49f 56f
3:12 5 6 mph 1020.2mb 49f 56f
3:06 5 6 mph 1020.2mb 49f 57f
3:00 3 6 mph 1020.2mb 49f 56f
2:36 5 8 mph 1020.1mb 48f 56f
2:30 7 9 mph 1020mb 48f 56f
2:24 7 8 mph 1020mb 49f 56f
2:18 7 9 mph 1019.9mb 49f 56f
2:12 7 9 mph 1019.8mb 48f 56f
2:06 6 8 mph 1019.8mb 48f 56f
2:00 6 8 mph 1019.9mb 48f 56f
1:54 7 9 mph 1019.9mb 49f 56f
1:48 6 8 mph 1019.8mb 48f 57f
1:36 6 7 mph 1019.8mb 48f 57f
1:30 6 7 mph 1019.8mb 48f 57f
1:24 5 6 mph 1019.9mb 48f 57f
1:18 5 7 mph 1019.9mb 48f 57f
1:12 5 6 mph 1019.9mb 48f 56f
1:06 6 7 mph 1019.9mb 48f 56f
1:00 3 7 mph 1020mb 48f 56f
12:54 6 7 mph 1020mb 48f 56f
12:48 6 7 mph 1020.1mb 48f 56f
12:36 6 9 mph 1019.9mb 49f 56f
12:30 7 8 mph 1020mb 48f 56f
12:24 6 8 mph 1020mb 49f 56f
12:18 6 8 mph 1020mb 49f 56f
12:12 7 8 mph 1020mb 49f 56f
12:06 7 8 mph 1020mb 49f 56f
12:00 7 9 mph 1020mb 49f 57f
11:54 5 6 mph 1020mb 49f 57f
11:48 6 7 mph 1019.9mb 49f 57f
11:36 5 7 mph 1019.9mb 49f 57f
11:30 3 6 mph 1019.9mb 49f 56f
11:24 5 6 mph 1019.9mb 50f 56f
11:18 5 6 mph 1019.8mb 50f 56f
11:12 2 3 mph 1019.8mb 50f 56f
11:06 2 3 mph 1019.8mb 51f 56f
11:00 2
mph
1019.7mb 51f 56f
10:54 2
mph
1019.7mb 51f 56f
10:48  -  2 mph 1019.7mb 52f 55f
10:36 1 5 mph 1019.6mb 53f 55f
10:30 3 5 mph 1019.5mb 53f 56f
10:24 3 6 mph 1019.4mb 53f 56f
10:18 3 5 mph 1019.4mb 53f 56f
10:12 2 5 mph 1019.4mb 54f 56f
10:06 2 3 mph 1019.3mb 54f 56f
10:00  -  1 mph 1019.3mb 54f 56f
9:36 1 2 mph 1019.3mb 55f 55f
9:30 1 2 mph 1019.2mb 55f 55f
9:24  -  1 mph 1019.1mb 55f 55f
9:18  -  2 mph 1019.1mb 54f 55f
9:12 2 6 mph 1019.1mb 54f 55f
9:06 5 6 mph 1019mb 54f 55f
9:00 2 3 mph 1019mb 54f 55f
8:54 2 3 mph 1019mb 53f 55f
8:48 2 3 mph 1019mb 53f 55f
8:36  -  1 mph 1018.8mb 51f 55f
8:30  -  1 mph 1018.7mb 50f 55f
8:24  -  1 mph 1018.7mb 50f 55f
8:18  -  1 mph 1018.7mb 50f 55f
8:12  -  mph 1018.6mb 49f 55f
8:06  -  1 mph 1018.7mb 49f 55f
8:00 1 2 mph 1018.6mb 49f 55f
7:54 1 2 mph 1018.6mb 49f 55f
7:48 1 2 mph 1018.5mb 49f 55f
7:36  -  1 mph 1018.5mb 49f 55f
7:30  -  1 mph 1018.4mb 49f 55f
7:24 1 2 mph 1018.4mb 49f 54f
7:18 1 3 mph 1018.3mb 49f 54f
7:12 2 5 mph 1018.3mb 49f 54f
7:06 1 2 mph 1018.3mb 49f 54f
7:00 1 2 mph 1018.3mb 49f 54f
6:54  -  1 mph 1018.3mb 49f 54f
6:48  -  2 mph 1018.2mb 49f 54f
6:36 2 3 mph 1018.2mb 49f 54f
6:30 2 5 mph 1018.2mb 49f 54f
6:24 1 2 mph 1018.2mb 49f 54f
6:18  -  2 mph 1018.1mb 49f 54f
6:12 1 2 mph 1018mb 49f 54f
6:06 2 5 mph 1018mb 49f 54f
6:00 3 6 mph 1018mb 49f 54f
5:54 5 8 mph 1018mb 49f 54f
5:48 6 7 mph 1017.9mb 49f 54f
5:36 6 8 mph 1017.9mb 49f 55f
5:30 7 9 mph 1017.9mb 49f 55f
5:24 7 8 mph 1017.9mb 49f 55f
5:18 6 7 mph 1017.8mb 49f 55f
5:12 7 8 mph 1017.8mb 49f 56f
5:06 6 10 mph 1017.8mb 49f 56f
5:00 6 9 mph 1017.7mb 49f 56f
4:54 7 10 mph 1017.8mb 49f 56f
4:48 8 9 mph 1017.7mb 49f 56f
4:36 8 9 mph 1017.6mb 49f 56f
4:30 8 9 mph 1017.6mb 49f 56f
4:24 7 9 mph 1017.6mb 49f 56f
4:18 6 9 mph 1017.5mb 49f 56f
4:12 7 8 mph 1017.6mb 49f 56f
4:06 5 7 mph 1017.5mb 49f 56f
4:00 3 7 mph 1017.5mb 49f 56f
3:54 5 6 mph 1017.5mb 49f 56f
3:48 6 7 mph 1017.5mb 49f 56f
3:36 3 7 mph 1017.5mb 49f 55f
3:30 6 8 mph 1017.4mb 49f 55f
3:24 6 7 mph 1017.3mb 49f 55f
3:18 6 7 mph 1017.3mb 49f 55f
3:12 6 7 mph 1017.3mb 49f 56f
3:06 5 7 mph 1017.3mb 49f 55f
3:00 6 7 mph 1017.3mb 49f 55f
2:54 6 8 mph 1017.4mb 49f 55f
2:48 6 7 mph 1017.3mb 49f 56f
2:36 7 8 mph 1017.3mb 49f 56f
2:30 6 10 mph 1017.3mb 49f 56f
2:24 7 8 mph 1017.3mb 49f 56f
2:18 7 8 mph 1017.3mb 49f 56f
2:12 6 7 mph 1017.3mb 49f 57f
2:06 5 6 mph 1017.3mb 49f 56f
2:00 2
mph
1017.2mb 49f 56f
1:54 1 3 mph 1017.3mb 49f 56f
1:48 3 5 mph 1017.3mb 49f 56f
1:36 5 6 mph 1017.1mb 49f 56f
1:30 5 6 mph 1017.2mb 49f 56f
1:24 3 5 mph 1017.1mb 49f 56f
1:18 2 3 mph 1017.1mb 49f 57f
1:12 1 3 mph 1017.1mb 49f 57f
1:06 2 5 mph 1017.1mb 49f 57f
1:00 2 5 mph 1017.2mb 49f 57f
12:54 2 3 mph 1017.1mb 49f 57f
12:48 2 5 mph 1017.2mb 49f 57f
12:36 3
mph
1017.3mb 49f 56f
12:30 3 5 mph 1017.4mb 49f 57f
12:24 3 5 mph 1017.3mb 49f 56f
12:18 3
mph
1017.3mb 49f 56f
12:12 3 6 mph 1017.3mb 49f 56f
12:06 6 8 mph 1017.3mb 49f 56f
12:00 3 6 mph 1017.3mb 49f 56f
Dom 08/21 11:54 5 7 mph 1017.3mb 49f 56f
11:48 2
mph
1017.3mb 49f 56f
11:36 2 3 mph 1017.2mb 50f 56f
11:30 2
mph
1017.1mb 50f 56f
11:24  -  3 mph 1017.2mb 50f 56f
11:18 2 3 mph 1017.3mb 50f 57f
11:12 2 6 mph 1017.3mb 51f 57f
11:06 3 5 mph 1017.3mb 51f 56f
11:00 2 3 mph 1017.3mb 51f 57f
10:54 2 6 mph 1017.2mb 52f 57f
10:48 5 6 mph 1017.3mb 52f 57f
10:36 2 3 mph 1017.3mb 53f 57f
10:30 3 5 mph 1017.3mb 54f 56f
10:24 3 5 mph 1017.3mb 54f 56f
10:18 2 3 mph 1017.2mb 55f 56f
10:12  -  1 mph 1017.2mb 55f 57f
10:06  -  2 mph 1017.2mb 55f 57f
10:00 2 3 mph 1017.1mb 55f 57f
9:54 2 5 mph 1017.1mb 55f 57f
9:48 3 5 mph 1017.1mb 56f 57f
9:36 2 3 mph 1017.1mb 56f 56f
9:30 2 5 mph 1017mb 55f 56f
9:24 3 6 mph 1016.9mb 55f 56f
9:18 5 6 mph 1016.8mb 55f 56f
9:12 2 3 mph 1016.8mb 55f 56f
9:06  -  2 mph 1016.9mb 55f 57f
9:00 2 3 mph 1016.9mb 55f 56f
8:54  -  2 mph 1016.8mb 55f 56f
8:48 2 6 mph 1016.7mb 54f 56f
8:36 5
mph
1016.6mb 52f 56f
8:30 1 2 mph 1016.6mb 51f 56f
8:24  -  1 mph 1016.6mb 50f 56f
8:18 1 2 mph 1016.6mb 49f 56f
8:12 1 3 mph 1016.5mb 49f 56f
8:06 3 6 mph 1016.4mb 49f 56f
8:00 5 7 mph 1016.4mb 49f 56f
7:54 3 6 mph 1016.4mb 49f 57f
7:48  -  2 mph 1016.5mb 48f 57f
7:36 2 6 mph 1016.4mb 48f 56f
7:30 3 5 mph 1016.3mb 48f 56f
7:24 2
mph
1016.3mb 48f 56f
7:18 2 5 mph 1016.3mb 48f 56f
7:12 2 6 mph 1016.3mb 48f 56f
7:06 5 6 mph 1016.2mb 48f 56f
7:00 6 7 mph 1016.2mb 48f 57f
6:54 6 8 mph 1016.2mb 48f 57f
6:48 6 8 mph 1016.3mb 48f 57f
6:36 6 8 mph 1016.2mb 48f 57f
6:30 7 10 mph 1016.2mb 48f 57f
6:24 6 8 mph 1016.2mb 48f 56f
6:18 5 7 mph 1016.2mb 48f 57f
6:12 6 7 mph 1016.2mb 48f 57f
6:06 2 5 mph 1016.3mb 48f 57f
6:00 3 5 mph 1016.3mb 48f 57f
5:54 3 5 mph 1016.3mb 48f 58f
5:48 1 2 mph 1016.3mb 48f 58f
5:36 3 5 mph 1016.2mb 48f 57f
5:30 3 5 mph 1016.2mb 48f 58f
5:24 3
mph
1016.2mb 48f 59f
5:18 1 2 mph 1016.2mb 48f 58f
5:12 2 3 mph 1016.3mb 48f 57f
5:06 2 3 mph 1016.3mb 48f 57f
5:00 3 5 mph 1016.3mb 48f 57f
4:54 3 5 mph 1016.3mb 48f 57f
4:48 3 5 mph 1016.3mb 48f 57f
4:36 2 5 mph 1016.3mb 48f 57f
4:30 3 6 mph 1016.2mb 48f 57f
4:24 3 6 mph 1016.3mb 48f 57f
4:18 6 7 mph 1016.3mb 48f 57f
4:12 5 6 mph 1016.3mb 48f 57f
4:06 5 7 mph 1016.2mb 48f 57f
4:00 6
mph
1016.2mb 48f 57f
3:54 5 6 mph 1016.1mb 48f 57f
3:48 5 7 mph 1016.2mb 48f 57f
3:36 5 6 mph 1016.2mb 48f 57f
3:30 6 7 mph 1016.2mb 48f 57f
3:24 6 7 mph 1016.2mb 48f 57f
3:18 5 7 mph 1016.2mb 48f 57f
3:12 6 8 mph 1016.2mb 48f 57f
3:06 7 8 mph 1016.2mb 48f 57f
3:00 7 8 mph 1016.1mb 48f 57f
2:54 3 9 mph 1016.1mb 48f 57f
2:48 5 8 mph 1016.1mb 48f 56f
2:36 6 8 mph 1016.1mb 48f 57f
2:30 6 7 mph 1016mb 48f 56f
2:24 5 6 mph 1016.1mb 48f 56f
2:18 5 7 mph 1016mb 48f 56f
2:12 5 6 mph 1015.9mb 48f 56f
2:06 5 6 mph 1015.9mb 48f 56f
2:00 3 5 mph 1015.8mb 48f 56f
1:54 2 3 mph 1015.8mb 48f 56f
1:48 2 3 mph 1015.7mb 48f 56f
1:36 3 6 mph 1015.7mb 48f 55f
1:30 7 10 mph 1015.7mb 48f 55f
1:24 7 11 mph 1015.7mb 48f 55f
1:18 8 14 mph 1015.7mb 48f 56f
1:12 7 10 mph 1015.5mb 48f 56f
1:06 6 10 mph 1015.5mb 48f 56f
1:00 7 11 mph 1015.4mb 48f 56f
12:54 7 10 mph 1015.4mb 48f 56f
12:48 7 9 mph 1015.4mb 48f 56f
12:36 7 10 mph 1015.3mb 48f 56f
12:30 7 8 mph 1015.3mb 48f 56f
12:24 7 9 mph 1015.3mb 48f 57f
12:18 6 7 mph 1015.2mb 48f 56f
12:12 7 8 mph 1015.2mb 48f 56f
12:06 7 8 mph 1015.1mb 48f 56f
12:00 7 8 mph 1015mb 48f 56f
11:54 7 8 mph 1015mb 48f 56f
11:48 7 8 mph 1014.9mb 48f 56f
11:36 6 9 mph 1014.9mb 48f 56f
11:30 6 8 mph 1014.9mb 49f 56f
11:24 6 9 mph 1014.8mb 49f 56f
11:18 6 8 mph 1014.8mb 49f 56f
11:12 6 8 mph 1014.8mb 49f 55f
11:06 5 7 mph 1014.7mb 49f 55f
11:00 5 6 mph 1014.6mb 49f 55f
10:54 6 7 mph 1014.6mb 49f 55f
10:48 6 8 mph 1014.6mb 50f 55f
10:36 7 8 mph 1014.4mb 51f 55f
10:30 6 8 mph 1014.3mb 51f 55f
10:24 5 6 mph 1014.3mb 52f 55f
10:18 5 6 mph 1014.3mb 53f 55f
10:12 5 6 mph 1014.3mb 53f 55f
10:06 5 6 mph 1014.2mb 54f 55f
10:00 5 6 mph 1014.2mb 55f 55f
9:54 5 6 mph 1014mb 55f 55f
9:48 5 6 mph 1014mb 56f 55f
9:36 3 5 mph 1013.9mb 56f 55f
9:30 3 6 mph 1013.8mb 56f 55f
9:24 3 5 mph 1013.8mb 56f 55f
9:18 2 5 mph 1013.8mb 57f 55f
9:12 2 5 mph 1013.8mb 57f 55f
9:06 3
mph
1013.7mb 57f 55f
9:00 2 3 mph 1013.7mb 56f 55f
8:54 2 3 mph 1013.6mb 56f 55f
8:48 2 3 mph 1013.6mb 56f 54f
8:36 2 3 mph 1013.6mb 56f 54f
8:30  -  2 mph 1013.6mb 56f 54f
8:24  -  1 mph 1013.6mb 55f 53f
8:18  -  mph 1013.5mb 55f 53f
8:12 1 2 mph 1013.5mb 55f 53f
8:06 2 3 mph 1013.4mb 55f 53f
8:00  -  2 mph 1013.4mb 54f 53f
7:54 1 3 mph 1013.5mb 54f 53f
7:48 2 5 mph 1013.5mb 53f 53f
7:36 2 5 mph 1013.4mb 50f 53f
7:30 3 6 mph 1013.3mb 49f 53f
7:24 3 6 mph 1013.3mb 49f 54f
7:18 5 6 mph 1013.2mb 48f 54f
7:12 5 8 mph 1013.2mb 48f 54f
7:06 7 9 mph 1013.2mb 48f 55f
7:00 5 6 mph 1013.1mb 48f 55f
6:36  -  mph 1012.8mb 48f -
6:30  -  mph 1012.7mb 48f -
6:24  -  mph 1012.6mb 48f -
6:18  -  mph 1012.5mb 48f -
6:12  -  mph 1012.5mb 48f -
6:06  -  mph 1012.5mb 48f -
6:00  -  mph 1012.5mb 48f -
5:54  -  mph 1012.6mb 48f -
5:48  -  mph 1012.6mb 48f -
5:36 3 6 mph 1012.6mb 48f -
5:30 5 6 mph 1012.5mb 48f -
5:24 5 7 mph 1012.4mb 48f -
5:18 3 6 mph 1012.4mb 48f -
5:12 3 6 mph 1012.5mb 48f -
5:06 5 6 mph 1012.5mb 48f -
5:00 3 6 mph 1012.4mb 48f -
4:54 3 6 mph 1012.4mb 48f -
4:48 2 5 mph 1012.5mb 48f -
4:36 2 5 mph 1012.4mb 48f -
4:30 3 5 mph 1012.5mb 48f -
4:24 2 3 mph 1012.5mb 48f -
4:18 3 5 mph 1012.4mb 48f -
4:12 3 5 mph 1012.5mb 48f -
4:06 5 6 mph 1012.5mb 48f -
4:00 5 6 mph 1012.5mb 48f -
3:54 5 6 mph 1012.4mb 48f -
3:48 5 6 mph 1012.3mb 48f -
3:36 7 9 mph 1012.2mb 48f -
3:30 5 7 mph 1012.2mb 48f -
3:24 5 7 mph 1012.3mb 48f -
3:18 6 8 mph 1012.2mb 48f -
3:12 6 8 mph 1012.2mb 48f -
3:06 6 8 mph 1012.2mb 48f -
3:00 6 9 mph 1012.1mb 48f -
2:54 6 8 mph 1012.1mb 48f -
2:48 6 8 mph 1012.1mb 48f -
2:36 5 7 mph 1012.1mb 48f -
2:30 6 7 mph 1012.1mb 48f -
2:24 5 6 mph 1012.1mb 48f -
2:18 5 6 mph 1012.1mb 48f -
2:12 5 6 mph 1012.1mb 49f -
2:06 5 6 mph 1012.1mb 49f -
2:00 5 6 mph 1012.1mb 49f -
1:54 2 5 mph 1012.1mb 49f -
1:48 3 5 mph 1012.1mb 49f -
1:36 3
mph
1012.1mb 49f -
1:30 2 3 mph 1012mb 49f -
1:24 2 5 mph 1012mb 49f -
1:18 2 5 mph 1012mb 49f -
1:12 3 5 mph 1012mb 49f -
1:06 3 5 mph 1012mb 49f -
1:00 3 5 mph 1012mb 49f -
12:54 3 6 mph 1012mb 49f -
12:48 3 5 mph 1012mb 49f -
12:36 5
mph
1012mb 49f -
12:30 5
mph
1012mb 49f -
12:24 5 6 mph 1011.9mb 49f -
12:18 3 5 mph 1011.9mb 49f -
12:12 3 5 mph 1011.9mb 50f -
12:06 3 5 mph 1012mb 50f -
12:00 3 6 mph 1012mb 50f -
Sáb 08/20 11:54 3 5 mph 1012mb 50f -
11:48 5
mph
1012mb 50f -
11:36 2 3 mph 1012mb 50f -
11:30 2
mph
1012mb 50f -
11:24 3
mph
1011.9mb 50f -
11:18 1 2 mph 1011.9mb 50f -
11:12 2
mph
1011.8mb 50f -
11:06 2
mph
1011.8mb 50f -
11:00 2
mph
1011.8mb 50f -
10:54 2
mph
1011.8mb 50f -
10:48 1 2 mph 1011.8mb 51f -
10:36  -  2 mph 1011.7mb 51f -
10:30  -  5 mph 1011.8mb 51f -
10:24 3
mph
1011.8mb 51f -
10:18 2 6 mph 1011.8mb 52f -
10:12 5 6 mph 1011.8mb 52f -
10:06 3
mph
1011.8mb 52f -
10:00 2 3 mph 1011.8mb 53f -
9:54 2
mph
1011.8mb 53f -
9:48 2
mph
1011.7mb 53f -
9:36 1 2 mph 1011.8mb 55f -
9:30  -  2 mph 1011.8mb 55f -
9:24 2
mph
1011.9mb 56f -
9:18 2
mph
1011.9mb 56f -
9:12 3 6 mph 1011.9mb 56f -
9:06 2 3 mph 1011.9mb 56f -
9:00 3 5 mph 1011.9mb 57f -
8:54 2 3 mph 1011.8mb 57f -
8:48 2 3 mph 1011.7mb 57f -
8:36 2 3 mph 1011.6mb 59f -
8:30 3 5 mph 1011.5mb 59f -
8:24 3 5 mph 1011.5mb 59f -
8:18 3 5 mph 1011.5mb 58f -
8:12 3 6 mph 1011.5mb 57f -
8:06 5 7 mph 1011.6mb 56f -
8:00 6
mph
1011.6mb 54f -
7:54 5 6 mph 1011.6mb 53f -
7:48 5 6 mph 1011.6mb 52f -
7:36 6 8 mph 1011.5mb 50f -
7:30 6 8 mph 1011.5mb 49f -
7:24 6 8 mph 1011.6mb 49f -
7:18 7 8 mph 1011.6mb 49f -
7:12 6 10 mph 1011.6mb 49f -
7:06 9 10 mph 1011.6mb 49f -
7:00 9 10 mph 1011.6mb 49f -
6:54 8 10 mph 1011.7mb 49f -
6:48 8 9 mph 1011.7mb 48f -
6:36 8 10 mph 1011.7mb 48f -
6:30 8 9 mph 1011.7mb 48f -
6:24 8 10 mph 1011.8mb 48f -
6:18 7 9 mph 1011.8mb 47f -
6:12 7 9 mph 1011.8mb 47f -
6:06 7 9 mph 1011.8mb 47f -
6:00 6 7 mph 1011.9mb 47f -
5:54 6 8 mph 1011.9mb 47f -
5:48 7 8 mph 1012mb 47f -
5:36 5 7 mph 1012.1mb 47f -
5:30 6 8 mph 1012.2mb 47f -
5:24 6 8 mph 1012.1mb 47f -
5:18 6 8 mph 1012.2mb 47f -
5:12 6 8 mph 1012.2mb 47f -
5:06 7 8 mph 1012.3mb 47f -
5:00 7 9 mph 1012.4mb 47f -
4:54 8 9 mph 1012.4mb 47f -
4:48 7 9 mph 1012.4mb 47f -
4:36 7 8 mph 1012.4mb 47f -
4:30 7 8 mph 1012.5mb 47f -
4:24 7 9 mph 1012.5mb 47f -
4:18 8 9 mph 1012.6mb 47f -
4:12 7 9 mph 1012.7mb 47f -
4:06 8 10 mph 1012.7mb 47f -
4:00 10 11 mph 1012.7mb 47f -
3:54 10 13 mph 1012.7mb 47f -
3:48 10 13 mph 1012.8mb 47f -
3:36 8 9 mph 1012.7mb 47f -
3:30 8
mph
1012.7mb 47f -
3:24 8 9 mph 1012.8mb 47f -
3:18 8
mph
1012.9mb 47f -
3:12 8 9 mph 1013mb 47f -
3:06 8 9 mph 1013mb 47f -
3:00 8 9 mph 1013mb 47f -
2:54 8
mph
1013.1mb 46f -
2:48 7 9 mph 1013.1mb 47f -
2:36 8
mph
1013.2mb 47f -
2:30 8
mph
1013.3mb 47f -
2:24 7 8 mph 1013.3mb 47f -
2:18 7 8 mph 1013.3mb 47f -
2:12 6 7 mph 1013.4mb 47f -
2:06 7 8 mph 1013.3mb 47f -
2:00 7 8 mph 1013.3mb 47f -
1:54 6 7 mph 1013.3mb 46f -
1:48 6 7 mph 1013.3mb 46f -
1:36 6 8 mph 1013.3mb 46f -
1:30 7 9 mph 1013.4mb 46f -
1:24 7 9 mph 1013.4mb 46f -
1:18 7 8 mph 1013.4mb 46f -
1:12 7 9 mph 1013.5mb 46f -
1:06 8 9 mph 1013.5mb 46f -
1:00 8 9 mph 1013.5mb 46f -
12:54 7 8 mph 1013.5mb 46f -
12:48 8
mph
1013.4mb 46f -
12:36 6 7 mph 1013.5mb 46f -
12:30 5
mph
1013.5mb 46f -
12:24 3 5 mph 1013.5mb 46f -
12:18 3 5 mph 1013.5mb 46f -
12:12 3 6 mph 1013.4mb 47f -
12:06 5 6 mph 1013.5mb 46f -
12:00 3 5 mph 1013.6mb 47f -
11:54 3 5 mph 1013.6mb 46f -
11:48 3 5 mph 1013.5mb 47f -
11:36 5
mph
1013.4mb 47f -
11:30 2 3 mph 1013.3mb 47f -
11:24 2 3 mph 1013.3mb 47f -
11:18 3 5 mph 1013.3mb 47f -
11:12 2
mph
1013.3mb 47f -
11:06 2 3 mph 1013.3mb 47f -
11:00 3 5 mph 1013.3mb 47f -
10:54 3 5 mph 1013.4mb 47f -
10:48 3 5 mph 1013.4mb 48f -
10:36 3 5 mph 1013.3mb 48f -
10:30 3 5 mph 1013.3mb 48f -
10:24 2 3 mph 1013.2mb 49f -
10:18 3 5 mph 1013.3mb 50f -
10:12 3 5 mph 1013.3mb 50f -
10:06 2 5 mph 1013.3mb 51f -
10:00 3 5 mph 1013.3mb 52f -
9:54 2 3 mph 1013.2mb 52f -
9:48 2 3 mph 1013.2mb 53f -
9:36 1 2 mph 1013.2mb 54f -
9:30  -  2 mph 1013.2mb 55f -
9:24 1 3 mph 1013.2mb 55f -
9:18 2 3 mph 1013.2mb 55f -
9:12 1 3 mph 1013.2mb 55f -
9:06 2 6 mph 1013.3mb 55f -
9:00 5 6 mph 1013.2mb 55f -
8:54 2 3 mph 1013.1mb 55f -
8:48 1 5 mph 1013mb 56f -
8:36 3 7 mph 1012.9mb 56f -
8:30 3 8 mph 1013mb 55f -
8:24 5 8 mph 1013mb 55f -
8:18 5 9 mph 1013.1mb 55f -
8:12 6 9 mph 1013.1mb 55f -
8:06 7 10 mph 1013mb 55f -
8:00 6 8 mph 1013.1mb 55f -
7:54 5 6 mph 1013.1mb 55f -
7:48 5 7 mph 1013.1mb 55f -
7:36 6 8 mph 1013mb 56f -
7:30 7 9 mph 1013mb 56f -
7:24 8 11 mph 1012.9mb 55f -
7:18 9 11 mph 1012.9mb 55f -
7:12 9 11 mph 1012.8mb 55f -
7:06 8 10 mph 1012.8mb 54f -
7:00 8 10 mph 1012.9mb 53f -
6:54 7 9 mph 1012.9mb 53f -
6:48 7 10 mph 1012.9mb 51f -
6:36 7 10 mph 1012.9mb 50f -
6:30 7 9 mph 1012.8mb 49f -
6:24 6 8 mph 1012.8mb 49f -
6:18 6 8 mph 1012.9mb 49f -
6:12 5 6 mph 1012.9mb 49f -
6:06 3 6 mph 1013mb 49f -
6:00 3 5 mph 1013mb 49f -
5:54 2 5 mph 1012.9mb 49f -
5:48 3 5 mph 1012.9mb 48f -
5:36 3 6 mph 1012.9mb 48f -
5:30 3 6 mph 1012.8mb 48f -
5:24 3 5 mph 1012.8mb 48f -
5:18 2 3 mph 1012.8mb 48f -
5:12 1 2 mph 1012.9mb 48f -
5:06 1 2 mph 1012.9mb 48f -
5:00 1 3 mph 1012.9mb 48f -
4:54 2 3 mph 1012.9mb 48f -
4:48  -  1 mph 1013mb 48f -
4:36  -  1 mph 1013mb 48f -
4:30  -  3 mph 1012.9mb 47f -
4:24  -  2 mph 1012.9mb 47f -
4:18  -  2 mph 1012.9mb 47f -
4:12 2 3 mph 1013mb 47f -
4:06 3
mph
1013mb 48f -
4:00 2 3 mph 1013.1mb 48f -
3:54 1 2 mph 1013.1mb 48f -
3:48 1 3 mph 1013.1mb 48f -
3:36 2
mph
1013.3mb 48f -
3:30 2
mph
1013.3mb 48f -
3:24 2
mph
1013.3mb 47f -
3:18  -  1 mph 1013.3mb 48f -
3:12 1
mph
1013.3mb 48f -
3:06  -  1 mph 1013.2mb 48f -
3:00  -  2 mph 1013.2mb 48f -
2:54 2
mph
1013.2mb 48f -
2:48 3
mph
1013.2mb 48f -
2:36 1 5 mph 1013.3mb 48f -
2:30 3 5 mph 1013.3mb 48f -
2:24 2 3 mph 1013.4mb 48f -
2:18 2 3 mph 1013.4mb 48f -
2:12  -  mph 1013.4mb 48f -
2:06  -  3 mph 1013.4mb 48f -
2:00 3 5 mph 1013.4mb 48f -
1:54 3 5 mph 1013.5mb 48f -
1:48 5
mph
1013.6mb 49f -
1:36 3 5 mph 1013.6mb 49f -
1:30 3 6 mph 1013.6mb 49f -
1:24 3 6 mph 1013.7mb 49f -
1:18 2 6 mph 1013.7mb 49f -
1:12 2 5 mph 1013.8mb 49f -
1:06 3 6 mph 1013.8mb 49f -
1:00 5 6 mph 1013.9mb 49f -
12:54 6 8 mph 1013.8mb 49f -
12:48 6 7 mph 1013.8mb 49f -
12:36 6
mph
1013.7mb 49f -
12:30 2 3 mph 1013.7mb 49f -
12:24 1 3 mph 1013.7mb 49f -
12:18 2 3 mph 1013.7mb 49f -
12:12 2 3 mph 1013.7mb 49f -
12:06 3 5 mph 1013.7mb 49f -
12:00 2 3 mph 1013.8mb 49f -
Sex 08/19 11:54 1 2 mph 1013.8mb 49f -
11:48  -  2 mph 1013.8mb 49f -
11:36  -  1 mph 1013.8mb 49f -
11:30  -  1 mph 1013.8mb 49f -
11:24 1 2 mph 1013.8mb 49f -
11:18 2
mph
1013.8mb 49f -
11:12  -  3 mph 1013.9mb 49f -
11:06 3 6 mph 1013.9mb 49f -
11:00 6 7 mph 1013.9mb 49f -
10:54 6 7 mph 1013.9mb 49f -
10:48 5 8 mph 1013.9mb 49f -
10:36 8 9 mph 1014mb 49f -
10:30 6 7 mph 1014mb 49f -
10:24 7 9 mph 1014mb 49f -
10:18 6 8 mph 1014mb 49f -
10:12 8 9 mph 1014mb 49f -
10:06 6 9 mph 1014mb 50f -
10:00 7 9 mph 1014mb 50f -
9:54 8 11 mph 1013.9mb 50f -
9:48 8 10 mph 1013.9mb 50f -
9:36 8 10 mph 1013.9mb 51f -
9:30 9 13 mph 1013.8mb 51f -
9:24 11 14 mph 1013.8mb 52f -